createdAt,value
2023-04-14T00:01:59.911Z,7.60
2023-04-14T00:04:27.625Z,7.60
2023-04-14T00:06:57.219Z,7.50
2023-04-14T00:09:24.054Z,7.60
2023-04-14T00:11:50.911Z,7.50
2023-04-14T00:14:17.544Z,7.50
2023-04-14T00:16:46.222Z,7.50
2023-04-14T00:19:12.951Z,7.50
2023-04-14T00:21:39.562Z,7.50
2023-04-14T00:24:06.231Z,7.40
2023-04-14T00:26:35.779Z,7.70
2023-04-14T00:29:02.676Z,7.40
2023-04-14T00:31:29.499Z,7.30
2023-04-14T00:33:56.090Z,7.30
2023-04-14T00:36:22.729Z,7.20
2023-04-14T00:38:49.558Z,7.20
2023-04-14T00:41:16.139Z,7.20
2023-04-14T00:43:42.690Z,7.10
2023-04-14T00:46:09.543Z,7.10
2023-04-14T00:48:36.493Z,7.10
2023-04-14T00:51:04.123Z,7.00
2023-04-14T00:53:32.739Z,7.00
2023-04-14T00:55:59.815Z,6.80
2023-04-14T00:58:27.033Z,6.80
2023-04-14T01:00:55.565Z,6.80
2023-04-14T01:03:24.469Z,6.80
2023-04-14T01:05:51.464Z,6.80
2023-04-14T01:08:19.321Z,6.70
2023-04-14T01:11:07.929Z,6.70
2023-04-14T01:13:52.094Z,6.70
2023-04-14T01:16:28.325Z,6.70
2023-04-14T01:18:58.138Z,6.70
2023-04-14T01:21:33.041Z,6.70
2023-04-14T01:24:06.289Z,6.60
2023-04-14T01:26:34.053Z,6.60
2023-04-14T01:29:43.369Z,6.60
2023-04-14T01:32:14.576Z,6.60
2023-04-14T01:34:51.989Z,6.50
2023-04-14T01:37:24.969Z,6.60
2023-04-14T01:39:55.385Z,6.50
2023-04-14T01:42:27.873Z,6.50
2023-04-14T01:44:58.663Z,6.50
2023-04-14T01:47:26.558Z,6.60
2023-04-14T01:49:54.060Z,6.50
2023-04-14T01:52:22.403Z,6.50
2023-04-14T01:54:52.237Z,6.50
2023-04-14T01:57:22.967Z,6.50
2023-04-14T01:59:53.537Z,6.50
2023-04-14T02:02:21.645Z,6.50
2023-04-14T02:04:49.894Z,6.40
2023-04-14T02:07:18.271Z,6.40
2023-04-14T02:09:45.905Z,6.40
2023-04-14T02:12:12.832Z,6.30
2023-04-14T02:14:42.522Z,6.30
2023-04-14T02:17:13.227Z,6.30
2023-04-14T02:19:44.629Z,6.20
2023-04-14T02:22:11.348Z,6.10
2023-04-14T02:24:38.036Z,6.20
2023-04-14T02:27:16.093Z,6.10
2023-04-14T02:29:48.292Z,6.20
2023-04-14T02:32:23.139Z,6.10
2023-04-14T02:34:58.416Z,6.00
2023-04-14T02:37:33.451Z,6.00
2023-04-14T02:40:06.266Z,5.90
2023-04-14T02:42:37.137Z,6.00
2023-04-14T02:45:07.054Z,6.00
2023-04-14T02:47:37.145Z,6.00
2023-04-14T02:50:05.768Z,6.00
2023-04-14T02:52:33.511Z,6.00
2023-04-14T02:55:02.210Z,6.00
2023-04-14T02:57:30.016Z,5.90
2023-04-14T02:59:58.700Z,5.80
2023-04-14T03:02:25.949Z,5.80
2023-04-14T03:04:53.714Z,5.70
2023-04-14T03:07:23.153Z,5.60
2023-04-14T03:09:51.518Z,5.60
2023-04-14T03:12:19.438Z,5.50
2023-04-14T03:14:46.950Z,5.60
2023-04-14T03:17:17.477Z,5.50
2023-04-14T03:19:47.909Z,5.50
2023-04-14T03:22:16.094Z,5.50
2023-04-14T03:24:44.257Z,5.50
2023-04-14T03:27:26.248Z,5.50
2023-04-14T03:29:55.363Z,5.50
2023-04-14T03:32:25.875Z,5.50
2023-04-14T03:34:56.529Z,5.50
2023-04-14T03:37:27.914Z,5.40
2023-04-14T03:40:00.346Z,5.50
2023-04-14T03:42:29.896Z,5.50
2023-04-14T03:44:58.553Z,5.50
2023-04-14T03:47:27.094Z,5.50
2023-04-14T03:49:57.580Z,5.50
2023-04-14T03:52:26.526Z,5.40
2023-04-14T03:54:58.847Z,5.40
2023-04-14T03:57:29.174Z,5.40
2023-04-14T03:59:56.976Z,5.40
2023-04-14T04:02:25.621Z,5.40
2023-04-14T04:04:54.241Z,5.40
2023-04-14T04:07:21.252Z,5.40
2023-04-14T04:09:50.588Z,5.40
2023-04-14T04:12:20.283Z,5.40
2023-04-14T04:14:47.096Z,5.40
2023-04-14T04:17:17.257Z,5.40
2023-04-14T04:19:44.741Z,5.30
2023-04-14T04:22:16.837Z,5.30
2023-04-14T04:24:45.946Z,5.30
2023-04-14T04:27:26.464Z,5.30
2023-04-14T04:29:54.102Z,5.30
2023-04-14T04:32:21.147Z,5.30
2023-04-14T04:34:50.380Z,5.40
2023-04-14T04:37:18.756Z,5.30
2023-04-14T04:39:45.480Z,5.30
2023-04-14T04:42:12.090Z,5.30
2023-04-14T04:44:38.823Z,5.30
2023-04-14T04:47:06.032Z,5.30
2023-04-14T04:49:32.620Z,5.30
2023-04-14T04:51:59.932Z,5.20
2023-04-14T04:54:27.104Z,5.10
2023-04-14T04:56:54.827Z,5.10
2023-04-14T04:59:21.605Z,5.00
2023-04-14T05:01:48.455Z,5.00
2023-04-14T05:04:15.777Z,5.00
2023-04-14T05:06:43.399Z,5.00
2023-04-14T05:09:10.043Z,5.10
2023-04-14T05:11:36.658Z,5.00
2023-04-14T05:14:04.689Z,5.00
2023-04-14T05:16:32.100Z,5.00
2023-04-14T05:18:59.853Z,4.90
2023-04-14T05:21:26.654Z,4.90
2023-04-14T05:23:54.608Z,5.00
2023-04-14T05:26:44.455Z,5.00
2023-04-14T05:29:08.941Z,5.10
2023-04-14T05:31:35.641Z,5.20
2023-04-14T05:34:02.804Z,5.10
2023-04-14T05:36:29.847Z,5.20
2023-04-14T05:38:57.593Z,5.20
2023-04-14T05:41:24.194Z,5.10
2023-04-14T05:43:50.806Z,5.10
2023-04-14T05:46:17.557Z,5.10
2023-04-14T05:48:44.763Z,5.10
2023-04-14T05:51:11.545Z,5.10
2023-04-14T05:53:38.159Z,5.20
2023-04-14T05:56:05.153Z,5.30
2023-04-14T05:58:33.079Z,5.30
2023-04-14T06:00:59.707Z,5.30
2023-04-14T06:03:26.565Z,5.30
2023-04-14T06:05:53.317Z,5.40
2023-04-14T06:08:21.518Z,5.50
2023-04-14T06:10:48.142Z,5.60
2023-04-14T06:13:17.115Z,5.60
2023-04-14T06:15:43.684Z,5.60
2023-04-14T06:18:12.624Z,5.60
2023-04-14T06:20:39.289Z,5.60
2023-04-14T06:23:06.055Z,5.70
2023-04-14T06:25:34.442Z,5.80
2023-04-14T06:28:03.943Z,5.80
2023-04-14T06:30:32.283Z,5.90
2023-04-14T06:33:01.712Z,6.00
2023-04-14T06:35:33.655Z,6.10
2023-04-14T06:38:01.755Z,6.10
2023-04-14T06:40:29.548Z,6.10
2023-04-14T06:42:58.112Z,6.10
2023-04-14T06:45:24.710Z,6.20
2023-04-14T06:47:51.700Z,6.30
2023-04-14T06:50:18.809Z,6.30
2023-04-14T06:52:45.534Z,6.40
2023-04-14T06:55:12.079Z,6.60
2023-04-14T06:57:38.611Z,6.70
2023-04-14T07:00:07.326Z,6.70
2023-04-14T07:02:35.585Z,6.80
2023-04-14T07:05:02.523Z,6.90
2023-04-14T07:07:29.182Z,7.00
2023-04-14T07:09:55.795Z,7.00
2023-04-14T07:12:22.423Z,7.10
2023-04-14T07:14:52.383Z,7.30
2023-04-14T07:17:19.803Z,7.50
2023-04-14T07:19:46.593Z,7.50
2023-04-14T07:22:13.226Z,7.60
2023-04-14T07:24:39.911Z,7.70
2023-04-14T07:27:14.952Z,7.80
2023-04-14T07:29:42.469Z,7.90
2023-04-14T07:32:09.116Z,8.00
2023-04-14T07:34:37.343Z,8.00
2023-04-14T07:37:06.826Z,8.20
2023-04-14T07:39:33.516Z,8.30
2023-04-14T07:42:01.504Z,8.30
2023-04-14T07:44:28.079Z,8.40
2023-04-14T07:46:54.726Z,8.50
2023-04-14T07:49:21.341Z,8.60
2023-04-14T07:51:48.039Z,8.70
2023-04-14T07:54:15.969Z,8.80
2023-04-14T07:56:42.678Z,8.90
2023-04-14T07:59:11.370Z,8.90
2023-04-14T08:01:38.137Z,9.10
2023-04-14T08:04:06.907Z,9.10
2023-04-14T08:06:33.751Z,9.30
2023-04-14T08:09:00.719Z,9.30
2023-04-14T08:11:27.560Z,9.40
2023-04-14T08:13:56.223Z,9.50
2023-04-14T08:16:23.589Z,9.50
2023-04-14T08:18:50.637Z,9.50
2023-04-14T08:21:19.455Z,9.60
2023-04-14T08:23:46.036Z,9.70
2023-04-14T08:26:16.690Z,9.70
2023-04-14T08:28:43.254Z,9.80
2023-04-14T08:31:10.590Z,9.90
2023-04-14T08:33:37.259Z,10.00
2023-04-14T08:36:04.260Z,10.10
2023-04-14T08:38:30.940Z,10.20
2023-04-14T08:41:01.034Z,10.20
2023-04-14T08:43:28.386Z,10.30
2023-04-14T08:45:56.715Z,10.30
2023-04-14T08:48:31.739Z,10.30
2023-04-14T08:51:14.441Z,10.50
2023-04-14T08:53:45.019Z,10.60
2023-04-14T08:56:19.002Z,10.60
2023-04-14T08:58:47.159Z,10.70
2023-04-14T09:01:14.194Z,10.70
2023-04-14T09:03:44.641Z,10.80
2023-04-14T09:06:12.462Z,10.90
2023-04-14T09:08:39.051Z,11.00
2023-04-14T09:11:05.959Z,11.10
2023-04-14T09:13:33.925Z,11.20
2023-04-14T09:16:01.712Z,11.30
2023-04-14T09:18:28.986Z,11.40
2023-04-14T09:21:31.311Z,11.50
2023-04-14T09:23:46.152Z,11.50
2023-04-14T09:26:13.468Z,11.60
2023-04-14T09:28:41.164Z,11.60
2023-04-14T09:31:11.355Z,11.80
2023-04-14T09:33:46.608Z,11.80
2023-04-14T09:36:22.374Z,11.80
2023-04-14T09:38:50.449Z,11.70
2023-04-14T09:41:26.464Z,11.80
2023-04-14T09:43:53.120Z,12.00
2023-04-14T09:46:20.326Z,11.90
2023-04-14T09:48:56.978Z,12.00
2023-04-14T09:51:33.006Z,12.10
2023-04-14T09:54:04.863Z,12.10
2023-04-14T09:56:32.039Z,12.30
2023-04-14T09:59:01.809Z,12.40
2023-04-14T10:01:34.073Z,12.50
2023-04-14T10:04:04.314Z,12.60
2023-04-14T10:06:32.123Z,12.70
2023-04-14T10:08:59.713Z,12.80
2023-04-14T10:11:29.904Z,12.80
2023-04-14T10:14:02.339Z,12.80
2023-04-14T10:16:29.475Z,12.70
2023-04-14T10:18:59.854Z,12.60
2023-04-14T10:21:28.570Z,12.80
2023-04-14T10:23:59.818Z,12.80
2023-04-14T10:26:26.707Z,12.90
2023-04-14T10:28:55.416Z,13.10
2023-04-14T10:31:24.745Z,13.10
2023-04-14T10:33:52.354Z,13.00
2023-04-14T10:36:31.277Z,13.10
2023-04-14T10:39:03.199Z,13.00
2023-04-14T10:41:49.778Z,13.00
2023-04-14T10:44:25.367Z,13.20
2023-04-14T10:46:54.104Z,13.30
2023-04-14T10:49:41.334Z,13.50
2023-04-14T10:52:16.766Z,13.70
2023-04-14T10:54:53.921Z,13.80
2023-04-14T10:57:30.135Z,13.90
2023-04-14T11:00:01.071Z,13.90
2023-04-14T11:02:32.854Z,13.90
2023-04-14T11:05:13.327Z,13.80
2023-04-14T11:07:48.147Z,13.90
2023-04-14T11:10:20.765Z,14.00
2023-04-14T11:13:00.646Z,14.20
2023-04-14T11:15:57.150Z,14.30
2023-04-14T11:18:30.269Z,14.40
2023-04-14T11:21:12.887Z,14.40
2023-04-14T11:23:40.984Z,14.50
2023-04-14T11:26:09.702Z,14.60
2023-04-14T11:28:38.323Z,14.50
2023-04-14T11:31:06.869Z,14.50
2023-04-14T11:33:35.866Z,14.50
2023-04-14T11:36:03.844Z,14.50
2023-04-14T11:38:31.471Z,14.60
2023-04-14T11:40:58.541Z,14.70
2023-04-14T11:43:25.484Z,14.60
2023-04-14T11:45:52.564Z,14.70
2023-04-14T11:48:20.621Z,14.70
2023-04-14T11:50:48.235Z,14.80
2023-04-14T11:53:17.974Z,14.70
2023-04-14T11:55:49.241Z,14.60
2023-04-14T11:58:24.177Z,14.60
2023-04-14T12:00:53.618Z,14.70
2023-04-14T12:03:29.545Z,14.70
2023-04-14T12:06:01.210Z,14.60
2023-04-14T12:08:31.036Z,14.70
2023-04-14T12:10:57.894Z,14.80
2023-04-14T12:13:25.044Z,14.80
2023-04-14T12:15:54.124Z,14.90
2023-04-14T12:18:21.349Z,14.90
2023-04-14T12:21:00.840Z,15.00
2023-04-14T12:23:27.618Z,14.70
2023-04-14T12:25:54.261Z,14.20
2023-04-14T12:28:30.679Z,14.20
2023-04-14T12:31:00.791Z,14.50
2023-04-14T12:33:28.901Z,14.60
2023-04-14T12:36:11.563Z,14.70
2023-04-14T12:38:40.202Z,14.90
2023-04-14T12:41:06.958Z,14.90
2023-04-14T12:43:36.456Z,14.60
2023-04-14T12:46:04.151Z,14.50
2023-04-14T12:48:40.253Z,14.40
2023-04-14T12:51:13.466Z,14.60
2023-04-14T12:53:41.121Z,14.70
2023-04-14T12:56:16.222Z,14.70
2023-04-14T12:58:46.718Z,14.50
2023-04-14T13:01:14.465Z,14.60
2023-04-14T13:03:50.859Z,14.60
2023-04-14T13:06:25.503Z,14.80
2023-04-14T13:08:53.741Z,14.80
2023-04-14T13:11:21.678Z,14.90
2023-04-14T13:13:48.319Z,14.80
2023-04-14T13:16:17.643Z,14.70
2023-04-14T13:18:46.457Z,14.70
2023-04-14T13:21:13.582Z,14.80
2023-04-14T13:23:40.700Z,14.80
2023-04-14T13:26:07.368Z,14.80
2023-04-14T13:28:33.960Z,15.00
2023-04-14T13:31:01.708Z,15.10
2023-04-14T13:33:28.331Z,15.20
2023-04-14T13:35:57.709Z,15.20
2023-04-14T13:38:24.727Z,15.20
2023-04-14T13:40:51.366Z,15.20
2023-04-14T13:43:18.941Z,15.30
2023-04-14T13:45:46.573Z,15.20
2023-04-14T13:48:13.684Z,15.20
2023-04-14T13:50:42.504Z,15.40
2023-04-14T13:53:09.781Z,15.40
2023-04-14T13:55:36.723Z,15.30
2023-04-14T13:58:03.622Z,15.20
2023-04-14T14:00:30.476Z,15.20
2023-04-14T14:02:57.357Z,14.70
2023-04-14T14:05:24.427Z,14.40
2023-04-14T14:07:51.352Z,14.60
2023-04-14T14:10:18.306Z,14.50
2023-04-14T14:12:45.275Z,14.80
2023-04-14T14:15:12.272Z,15.20
2023-04-14T14:17:39.216Z,15.50
2023-04-14T14:20:07.353Z,15.70
2023-04-14T14:22:33.979Z,15.80
2023-04-14T14:25:14.877Z,15.70
2023-04-14T14:27:42.434Z,14.70
2023-04-14T14:30:09.638Z,14.50
2023-04-14T14:32:36.343Z,14.90
2023-04-14T14:35:06.460Z,15.20
2023-04-14T14:37:35.041Z,15.60
2023-04-14T14:40:01.697Z,16.00
2023-04-14T14:42:28.322Z,16.10
2023-04-14T14:44:54.860Z,16.10
2023-04-14T14:47:21.617Z,15.70
2023-04-14T14:49:57.145Z,15.40
2023-04-14T14:52:34.075Z,15.30
2023-04-14T14:55:01.408Z,15.20
2023-04-14T14:57:29.631Z,15.20
2023-04-14T14:59:56.982Z,15.30
2023-04-14T15:02:25.247Z,15.40
2023-04-14T15:04:54.490Z,15.50
2023-04-14T15:07:21.046Z,15.70
2023-04-14T15:09:48.814Z,15.80
2023-04-14T15:12:15.731Z,15.80
2023-04-14T15:14:42.404Z,15.60
2023-04-14T15:17:10.250Z,15.40
2023-04-14T15:19:37.934Z,15.40
2023-04-14T15:22:04.779Z,15.30
2023-04-14T15:24:31.305Z,15.30
2023-04-14T15:26:58.068Z,15.40
2023-04-14T15:29:26.249Z,15.40
2023-04-14T15:31:52.951Z,15.50
2023-04-14T15:34:22.389Z,15.60
2023-04-14T15:36:49.366Z,15.80
2023-04-14T15:39:16.001Z,16.10
2023-04-14T15:41:42.741Z,16.30
2023-04-14T15:44:09.283Z,16.20
2023-04-14T15:46:35.893Z,16.10
2023-04-14T15:49:04.747Z,15.90
2023-04-14T15:51:31.694Z,15.60
2023-04-14T15:53:58.307Z,15.50
2023-04-14T15:56:25.830Z,15.60
2023-04-14T15:58:52.426Z,15.60
2023-04-14T16:01:25.270Z,15.70
2023-04-14T16:03:52.807Z,15.40
2023-04-14T16:06:19.607Z,15.20
2023-04-14T16:08:46.303Z,15.20
2023-04-14T16:11:16.532Z,15.30
2023-04-14T16:13:46.501Z,15.30
2023-04-14T16:16:14.768Z,15.20
2023-04-14T16:18:42.244Z,15.20
2023-04-14T16:21:08.843Z,15.20
2023-04-14T16:23:35.682Z,15.10
2023-04-14T16:26:02.308Z,15.00
2023-04-14T16:28:28.949Z,15.00
2023-04-14T16:30:59.388Z,14.90
2023-04-14T16:33:26.080Z,14.80
2023-04-14T16:35:52.961Z,14.80
2023-04-14T16:38:21.394Z,14.70
2023-04-14T16:40:55.858Z,14.70
2023-04-14T16:43:22.458Z,14.70
2023-04-14T16:45:49.237Z,14.40
2023-04-14T16:48:17.638Z,14.20
2023-04-14T16:50:48.234Z,14.20
2023-04-14T16:53:14.822Z,14.30
2023-04-14T16:55:41.694Z,14.30
2023-04-14T16:58:09.678Z,14.40
2023-04-14T17:00:36.945Z,14.40
2023-04-14T17:03:07.451Z,14.40
2023-04-14T17:05:34.183Z,14.40
2023-04-14T17:08:03.668Z,14.30
2023-04-14T17:10:31.043Z,14.30
2023-04-14T17:12:57.669Z,14.40
2023-04-14T17:15:27.663Z,14.30
2023-04-14T17:17:57.463Z,15.00
2023-04-14T17:20:27.066Z,14.20
2023-04-14T17:22:54.987Z,14.20
2023-04-14T17:25:26.714Z,14.30
2023-04-14T17:27:53.861Z,14.40
2023-04-14T17:30:20.556Z,14.60
2023-04-14T17:32:48.617Z,14.80
2023-04-14T17:35:15.343Z,14.80
2023-04-14T17:37:44.805Z,14.70
2023-04-14T17:40:12.401Z,14.90
2023-04-14T17:42:42.281Z,14.40
2023-04-14T17:45:09.294Z,14.30
2023-04-14T17:47:39.936Z,14.50
2023-04-14T17:50:10.397Z,14.60
2023-04-14T17:52:37.973Z,14.60
2023-04-14T17:55:11.796Z,14.50
2023-04-14T17:57:38.991Z,14.40
2023-04-14T18:00:07.328Z,14.10
2023-04-14T18:02:36.208Z,14.00
2023-04-14T18:05:03.487Z,13.90
2023-04-14T18:07:31.206Z,14.00
2023-04-14T18:09:58.364Z,13.90
2023-04-14T18:12:28.188Z,13.70
2023-04-14T18:14:55.104Z,13.60
2023-04-14T18:17:22.099Z,13.60
2023-04-14T18:19:48.777Z,13.50
2023-04-14T18:22:15.381Z,13.50
2023-04-14T18:29:45.301Z,13.30
2023-04-14T18:32:13.476Z,13.20
2023-04-14T18:34:40.033Z,13.10
2023-04-14T18:37:07.903Z,13.10
2023-04-14T18:39:38.834Z,12.50
2023-04-14T18:42:05.373Z,12.60
2023-04-14T18:44:34.508Z,12.70
2023-04-14T18:47:01.353Z,12.60
2023-04-14T18:49:28.334Z,12.70
2023-04-14T18:51:54.903Z,12.60
2023-04-14T18:54:21.955Z,12.60
2023-04-14T18:56:48.913Z,12.50
2023-04-14T18:59:15.598Z,12.50
2023-04-14T19:01:42.159Z,12.60
2023-04-14T19:04:09.016Z,12.60
2023-04-14T19:06:35.772Z,12.40
2023-04-14T19:09:04.343Z,12.40
2023-04-14T19:11:35.949Z,12.50
2023-04-14T19:14:05.780Z,12.50
2023-04-14T19:16:32.838Z,12.40
2023-04-14T19:19:00.180Z,12.30
2023-04-14T19:21:27.386Z,12.00
2023-04-14T19:23:56.572Z,12.00
2023-04-14T19:26:24.603Z,12.00
2023-04-14T19:28:53.549Z,12.10
2023-04-14T19:31:25.793Z,12.00
2023-04-14T19:33:53.893Z,11.90
2023-04-14T19:36:20.523Z,11.80
2023-04-14T19:38:47.434Z,11.90
2023-04-14T19:41:14.702Z,12.00
2023-04-14T19:43:42.032Z,11.60
2023-04-14T19:46:10.421Z,11.60
2023-04-14T19:48:37.120Z,11.60
2023-04-14T19:51:04.848Z,11.40
2023-04-14T19:53:31.687Z,11.50
2023-04-14T19:55:58.585Z,11.50
2023-04-14T19:58:27.000Z,11.50
2023-04-14T20:00:55.733Z,11.30
2023-04-14T20:03:23.967Z,11.30
2023-04-14T20:05:56.648Z,11.20
2023-04-14T20:08:24.548Z,11.20
2023-04-14T20:10:53.166Z,11.10
2023-04-14T20:13:21.377Z,11.10
2023-04-14T20:15:49.293Z,11.10
2023-04-14T20:18:18.080Z,11.10
2023-04-14T20:20:46.109Z,11.00
2023-04-14T20:23:13.030Z,10.90
2023-04-14T20:25:39.814Z,10.80
2023-04-14T20:28:07.493Z,10.70
2023-04-14T20:30:34.162Z,10.70
2023-04-14T20:33:04.728Z,10.70
2023-04-14T20:35:35.506Z,10.70
2023-04-14T20:38:02.855Z,10.60
2023-04-14T20:40:30.047Z,10.50
2023-04-14T20:42:56.789Z,10.50
2023-04-14T20:45:23.456Z,10.50
2023-04-14T20:47:50.355Z,10.60
2023-04-14T20:50:18.521Z,10.60
2023-04-14T20:52:45.619Z,10.60
2023-04-14T20:55:13.342Z,10.60
2023-04-14T20:57:41.602Z,10.50
2023-04-14T21:00:13.741Z,10.50
2023-04-14T21:02:40.455Z,10.40
2023-04-14T21:05:07.497Z,10.50
2023-04-14T21:07:39.840Z,10.40
2023-04-14T21:10:09.037Z,10.40
2023-04-14T21:12:36.342Z,10.40
2023-04-14T21:15:42.100Z,10.30
2023-04-14T21:18:11.784Z,10.30
2023-04-14T21:20:40.651Z,10.20
2023-04-14T21:23:09.844Z,10.20
2023-04-14T21:25:36.521Z,10.20
2023-04-14T21:28:03.816Z,10.10
2023-04-14T21:30:31.434Z,10.00
2023-04-14T21:32:58.083Z,9.90
2023-04-14T21:35:25.165Z,9.90
2023-04-14T21:37:55.026Z,10.00
2023-04-14T21:40:21.674Z,10.00
2023-04-14T21:42:48.396Z,9.90
2023-04-14T21:45:15.095Z,9.80
2023-04-14T21:47:41.910Z,9.70
2023-04-14T21:50:09.587Z,9.50
2023-04-14T21:52:36.436Z,9.70
2023-04-14T21:55:03.198Z,9.60
2023-04-14T21:57:44.544Z,9.80
2023-04-14T22:00:17.431Z,9.70
2023-04-14T22:02:45.610Z,9.70
2023-04-14T22:05:13.260Z,9.60
2023-04-14T22:07:39.933Z,9.70
2023-04-14T22:10:06.978Z,9.60
2023-04-14T22:12:37.721Z,9.60
2023-04-14T22:15:04.774Z,9.70
2023-04-14T22:17:32.597Z,9.70
2023-04-14T22:19:59.219Z,9.60
2023-04-14T22:22:26.049Z,9.60
2023-04-14T22:24:54.906Z,9.60
2023-04-14T22:27:21.769Z,9.70
2023-04-14T22:29:48.941Z,9.60
2023-04-14T22:32:16.254Z,9.60
2023-04-14T22:34:43.534Z,9.60
2023-04-14T22:37:12.737Z,9.30
2023-04-14T22:39:40.547Z,9.20
2023-04-14T22:42:07.368Z,9.30
2023-04-14T22:44:33.950Z,9.20
2023-04-14T22:47:01.179Z,9.10
2023-04-14T22:49:27.837Z,9.00
2023-04-14T22:51:54.496Z,9.10
2023-04-14T22:54:21.145Z,9.20
2023-04-14T22:56:48.222Z,9.20
2023-04-14T22:59:16.902Z,9.20
2023-04-14T23:01:43.612Z,9.20
2023-04-14T23:04:10.440Z,9.20
2023-04-14T23:06:37.884Z,9.10
2023-04-14T23:09:05.530Z,9.10
2023-04-14T23:11:32.679Z,9.20
2023-04-14T23:13:59.490Z,9.20
2023-04-14T23:24:31.877Z,9.20
2023-04-14T23:26:58.543Z,9.20
2023-04-14T23:29:25.242Z,9.20
2023-04-14T23:31:51.914Z,9.20
2023-04-14T23:34:18.732Z,9.20
2023-04-14T23:36:48.615Z,9.10
2023-04-14T23:39:15.335Z,9.00
2023-04-14T23:41:42.599Z,8.90
2023-04-14T23:44:09.326Z,8.80
2023-04-14T23:46:36.240Z,8.80
2023-04-14T23:49:22.326Z,8.70
2023-04-14T23:51:49.873Z,8.80
2023-04-14T23:54:16.658Z,8.80
2023-04-14T23:56:43.311Z,8.80
2023-04-14T23:59:10.281Z,8.90
